sensor_id;sensor_type;location;lat;lon;timestamp;P1;durP1;ratioP1;P2;durP2;ratioP2
65174;SDS011;51761;42.126;24.752;2023-04-25T00:00:57;5.45;;;3.60;;
65174;SDS011;51761;42.126;24.752;2023-04-25T00:03:23;4.35;;;3.03;;
65174;SDS011;51761;42.126;24.752;2023-04-25T00:05:50;6.30;;;3.22;;
65174;SDS011;51761;42.126;24.752;2023-04-25T00:08:16;6.00;;;4.07;;
65174;SDS011;51761;42.126;24.752;2023-04-25T00:10:42;9.77;;;4.10;;
65174;SDS011;51761;42.126;24.752;2023-04-25T00:13:08;8.35;;;4.95;;
65174;SDS011;51761;42.126;24.752;2023-04-25T00:15:34;11.32;;;5.82;;
65174;SDS011;51761;42.126;24.752;2023-04-25T00:18:01;8.65;;;5.03;;
65174;SDS011;51761;42.126;24.752;2023-04-25T00:20:26;11.57;;;6.63;;
65174;SDS011;51761;42.126;24.752;2023-04-25T00:22:52;8.43;;;4.57;;
65174;SDS011;51761;42.126;24.752;2023-04-25T00:25:20;6.25;;;4.28;;
65174;SDS011;51761;42.126;24.752;2023-04-25T00:27:46;7.40;;;3.95;;
65174;SDS011;51761;42.126;24.752;2023-04-25T00:30:12;5.57;;;4.22;;
65174;SDS011;51761;42.126;24.752;2023-04-25T00:32:37;6.15;;;4.00;;
65174;SDS011;51761;42.126;24.752;2023-04-25T00:35:03;6.22;;;4.00;;
65174;SDS011;51761;42.126;24.752;2023-04-25T00:37:29;8.20;;;4.60;;
65174;SDS011;51761;42.126;24.752;2023-04-25T00:39:54;7.97;;;4.30;;
65174;SDS011;51761;42.126;24.752;2023-04-25T00:42:21;6.63;;;4.38;;
65174;SDS011;51761;42.126;24.752;2023-04-25T00:44:46;8.68;;;4.65;;
65174;SDS011;51761;42.126;24.752;2023-04-25T00:47:12;7.15;;;4.47;;
65174;SDS011;51761;42.126;24.752;2023-04-25T00:49:38;9.63;;;4.63;;
65174;SDS011;51761;42.126;24.752;2023-04-25T00:52:04;8.07;;;4.68;;
65174;SDS011;51761;42.126;24.752;2023-04-25T00:54:29;6.45;;;4.65;;
65174;SDS011;51761;42.126;24.752;2023-04-25T00:56:55;7.50;;;4.47;;
65174;SDS011;51761;42.126;24.752;2023-04-25T00:59:21;8.73;;;4.45;;
65174;SDS011;51761;42.126;24.752;2023-04-25T01:01:47;6.22;;;4.80;;
65174;SDS011;51761;42.126;24.752;2023-04-25T01:04:13;6.00;;;4.40;;
65174;SDS011;51761;42.126;24.752;2023-04-25T01:06:39;6.60;;;5.15;;
65174;SDS011;51761;42.126;24.752;2023-04-25T01:09:05;7.55;;;4.90;;
65174;SDS011;51761;42.126;24.752;2023-04-25T01:11:31;8.60;;;4.75;;
65174;SDS011;51761;42.126;24.752;2023-04-25T01:13:56;8.88;;;5.43;;
65174;SDS011;51761;42.126;24.752;2023-04-25T01:16:22;6.75;;;4.68;;
65174;SDS011;51761;42.126;24.752;2023-04-25T01:18:51;9.10;;;5.47;;
65174;SDS011;51761;42.126;24.752;2023-04-25T01:21:17;8.27;;;5.35;;
65174;SDS011;51761;42.126;24.752;2023-04-25T01:23:43;7.93;;;5.45;;
65174;SDS011;51761;42.126;24.752;2023-04-25T01:26:09;6.82;;;4.95;;
65174;SDS011;51761;42.126;24.752;2023-04-25T01:28:37;8.48;;;5.70;;
65174;SDS011;51761;42.126;24.752;2023-04-25T01:31:06;10.43;;;5.32;;
65174;SDS011;51761;42.126;24.752;2023-04-25T01:33:32;8.77;;;5.00;;
65174;SDS011;51761;42.126;24.752;2023-04-25T01:35:57;9.13;;;5.82;;
65174;SDS011;51761;42.126;24.752;2023-04-25T01:38:23;9.48;;;6.13;;
65174;SDS011;51761;42.126;24.752;2023-04-25T01:40:49;11.70;;;5.53;;
65174;SDS011;51761;42.126;24.752;2023-04-25T01:43:16;8.05;;;5.47;;
65174;SDS011;51761;42.126;24.752;2023-04-25T01:45:42;6.97;;;5.10;;
65174;SDS011;51761;42.126;24.752;2023-04-25T01:48:08;7.65;;;4.72;;
65174;SDS011;51761;42.126;24.752;2023-04-25T01:50:35;8.63;;;6.05;;
65174;SDS011;51761;42.126;24.752;2023-04-25T01:53:00;9.95;;;5.63;;
65174;SDS011;51761;42.126;24.752;2023-04-25T01:55:27;10.55;;;5.97;;
65174;SDS011;51761;42.126;24.752;2023-04-25T01:57:52;8.25;;;6.05;;
65174;SDS011;51761;42.126;24.752;2023-04-25T02:00:18;12.43;;;7.00;;
65174;SDS011;51761;42.126;24.752;2023-04-25T02:02:44;11.77;;;7.63;;
65174;SDS011;51761;42.126;24.752;2023-04-25T02:05:09;11.88;;;8.07;;
65174;SDS011;51761;42.126;24.752;2023-04-25T02:07:35;14.90;;;8.85;;
65174;SDS011;51761;42.126;24.752;2023-04-25T02:10:01;15.95;;;8.73;;
65174;SDS011;51761;42.126;24.752;2023-04-25T02:12:27;13.02;;;8.25;;
65174;SDS011;51761;42.126;24.752;2023-04-25T02:14:53;11.85;;;7.97;;
65174;SDS011;51761;42.126;24.752;2023-04-25T02:17:18;13.30;;;8.88;;
65174;SDS011;51761;42.126;24.752;2023-04-25T02:19:44;15.20;;;9.00;;
65174;SDS011;51761;42.126;24.752;2023-04-25T02:22:09;15.60;;;9.75;;
65174;SDS011;51761;42.126;24.752;2023-04-25T02:24:35;14.88;;;8.95;;
65174;SDS011;51761;42.126;24.752;2023-04-25T02:27:01;11.23;;;7.82;;
65174;SDS011;51761;42.126;24.752;2023-04-25T02:29:26;15.05;;;8.32;;
65174;SDS011;51761;42.126;24.752;2023-04-25T02:31:52;13.65;;;7.57;;
65174;SDS011;51761;42.126;24.752;2023-04-25T02:34:17;11.38;;;7.50;;
65174;SDS011;51761;42.126;24.752;2023-04-25T02:36:43;11.32;;;6.85;;
65174;SDS011;51761;42.126;24.752;2023-04-25T02:39:08;11.68;;;7.05;;
65174;SDS011;51761;42.126;24.752;2023-04-25T02:41:35;11.27;;;7.82;;
65174;SDS011;51761;42.126;24.752;2023-04-25T02:44:00;11.07;;;7.00;;
65174;SDS011;51761;42.126;24.752;2023-04-25T02:46:26;11.48;;;7.22;;
65174;SDS011;51761;42.126;24.752;2023-04-25T02:48:51;14.80;;;7.65;;
65174;SDS011;51761;42.126;24.752;2023-04-25T02:51:17;13.82;;;8.70;;
65174;SDS011;51761;42.126;24.752;2023-04-25T02:53:42;11.00;;;7.40;;
65174;SDS011;51761;42.126;24.752;2023-04-25T02:56:08;17.73;;;9.93;;
65174;SDS011;51761;42.126;24.752;2023-04-25T02:58:33;16.10;;;9.25;;
65174;SDS011;51761;42.126;24.752;2023-04-25T03:00:59;16.42;;;9.20;;
65174;SDS011;51761;42.126;24.752;2023-04-25T03:03:25;14.25;;;9.10;;
65174;SDS011;51761;42.126;24.752;2023-04-25T03:05:51;15.35;;;8.90;;
65174;SDS011;51761;42.126;24.752;2023-04-25T03:08:17;18.08;;;10.35;;
65174;SDS011;51761;42.126;24.752;2023-04-25T03:10:43;19.13;;;9.75;;
65174;SDS011;51761;42.126;24.752;2023-04-25T03:13:09;20.20;;;10.45;;
65174;SDS011;51761;42.126;24.752;2023-04-25T03:15:35;17.30;;;10.45;;
65174;SDS011;51761;42.126;24.752;2023-04-25T03:18:01;16.90;;;11.23;;
65174;SDS011;51761;42.126;24.752;2023-04-25T03:20:27;20.77;;;9.88;;
65174;SDS011;51761;42.126;24.752;2023-04-25T03:22:53;18.13;;;11.20;;
65174;SDS011;51761;42.126;24.752;2023-04-25T03:25:18;18.15;;;10.38;;
65174;SDS011;51761;42.126;24.752;2023-04-25T03:27:44;19.83;;;11.02;;
65174;SDS011;51761;42.126;24.752;2023-04-25T03:30:09;19.40;;;10.20;;
65174;SDS011;51761;42.126;24.752;2023-04-25T03:32:36;22.13;;;10.77;;
65174;SDS011;51761;42.126;24.752;2023-04-25T03:35:01;15.15;;;9.68;;
65174;SDS011;51761;42.126;24.752;2023-04-25T03:37:27;18.65;;;10.80;;
65174;SDS011;51761;42.126;24.752;2023-04-25T03:39:52;19.70;;;10.02;;
65174;SDS011;51761;42.126;24.752;2023-04-25T03:42:18;16.52;;;9.82;;
65174;SDS011;51761;42.126;24.752;2023-04-25T03:44:43;25.98;;;9.52;;
65174;SDS011;51761;42.126;24.752;2023-04-25T03:47:09;17.70;;;9.20;;
65174;SDS011;51761;42.126;24.752;2023-04-25T03:49:35;16.38;;;9.80;;
65174;SDS011;51761;42.126;24.752;2023-04-25T03:52:01;16.20;;;9.77;;
65174;SDS011;51761;42.126;24.752;2023-04-25T03:54:27;17.48;;;10.32;;
65174;SDS011;51761;42.126;24.752;2023-04-25T03:56:52;19.02;;;11.60;;
65174;SDS011;51761;42.126;24.752;2023-04-25T03:59:18;16.17;;;9.45;;
65174;SDS011;51761;42.126;24.752;2023-04-25T04:01:43;23.52;;;13.35;;
65174;SDS011;51761;42.126;24.752;2023-04-25T04:04:09;17.30;;;10.10;;
65174;SDS011;51761;42.126;24.752;2023-04-25T04:06:34;21.50;;;10.82;;
65174;SDS011;51761;42.126;24.752;2023-04-25T04:09:01;12.90;;;8.38;;
65174;SDS011;51761;42.126;24.752;2023-04-25T04:11:27;15.90;;;9.18;;
65174;SDS011;51761;42.126;24.752;2023-04-25T04:13:52;21.85;;;11.40;;
65174;SDS011;51761;42.126;24.752;2023-04-25T04:16:18;17.88;;;10.75;;
65174;SDS011;51761;42.126;24.752;2023-04-25T04:18:44;18.48;;;11.10;;
65174;SDS011;51761;42.126;24.752;2023-04-25T04:21:10;27.60;;;13.88;;
65174;SDS011;51761;42.126;24.752;2023-04-25T04:23:36;137.63;;;60.13;;
65174;SDS011;51761;42.126;24.752;2023-04-25T04:26:02;34.55;;;18.67;;
65174;SDS011;51761;42.126;24.752;2023-04-25T04:28:28;27.42;;;15.45;;
65174;SDS011;51761;42.126;24.752;2023-04-25T04:30:53;25.10;;;14.90;;
65174;SDS011;51761;42.126;24.752;2023-04-25T04:33:20;19.80;;;12.60;;
65174;SDS011;51761;42.126;24.752;2023-04-25T04:35:46;21.08;;;13.40;;
65174;SDS011;51761;42.126;24.752;2023-04-25T04:38:12;23.05;;;12.48;;
65174;SDS011;51761;42.126;24.752;2023-04-25T04:40:40;19.02;;;11.85;;
65174;SDS011;51761;42.126;24.752;2023-04-25T04:43:08;21.00;;;12.13;;
65174;SDS011;51761;42.126;24.752;2023-04-25T04:45:35;32.40;;;17.20;;
65174;SDS011;51761;42.126;24.752;2023-04-25T04:48:01;21.80;;;11.73;;
65174;SDS011;51761;42.126;24.752;2023-04-25T04:50:27;22.50;;;11.15;;
65174;SDS011;51761;42.126;24.752;2023-04-25T04:52:53;15.60;;;10.02;;
65174;SDS011;51761;42.126;24.752;2023-04-25T04:55:20;24.85;;;12.68;;
65174;SDS011;51761;42.126;24.752;2023-04-25T04:57:45;14.45;;;9.95;;
65174;SDS011;51761;42.126;24.752;2023-04-25T05:00:11;24.17;;;12.65;;
65174;SDS011;51761;42.126;24.752;2023-04-25T05:02:37;19.45;;;12.60;;
65174;SDS011;51761;42.126;24.752;2023-04-25T05:05:04;20.13;;;12.13;;
65174;SDS011;51761;42.126;24.752;2023-04-25T05:07:30;21.67;;;11.80;;
65174;SDS011;51761;42.126;24.752;2023-04-25T05:09:56;20.88;;;12.30;;
65174;SDS011;51761;42.126;24.752;2023-04-25T05:12:21;19.95;;;12.20;;
65174;SDS011;51761;42.126;24.752;2023-04-25T05:14:47;18.88;;;11.13;;
65174;SDS011;51761;42.126;24.752;2023-04-25T05:17:12;16.88;;;11.55;;
65174;SDS011;51761;42.126;24.752;2023-04-25T05:19:38;19.00;;;11.73;;
65174;SDS011;51761;42.126;24.752;2023-04-25T05:22:04;17.67;;;11.70;;
65174;SDS011;51761;42.126;24.752;2023-04-25T05:24:30;18.02;;;10.75;;
65174;SDS011;51761;42.126;24.752;2023-04-25T05:26:56;25.17;;;11.77;;
65174;SDS011;51761;42.126;24.752;2023-04-25T05:29:21;16.52;;;10.88;;
65174;SDS011;51761;42.126;24.752;2023-04-25T05:31:47;21.77;;;12.18;;
65174;SDS011;51761;42.126;24.752;2023-04-25T05:34:13;15.63;;;10.35;;
65174;SDS011;51761;42.126;24.752;2023-04-25T05:36:38;17.13;;;10.90;;
65174;SDS011;51761;42.126;24.752;2023-04-25T05:39:04;17.30;;;10.80;;
65174;SDS011;51761;42.126;24.752;2023-04-25T05:41:31;29.42;;;10.25;;
65174;SDS011;51761;42.126;24.752;2023-04-25T05:43:56;16.77;;;10.90;;
65174;SDS011;51761;42.126;24.752;2023-04-25T05:46:22;18.00;;;11.40;;
65174;SDS011;51761;42.126;24.752;2023-04-25T05:48:47;17.30;;;10.98;;
65174;SDS011;51761;42.126;24.752;2023-04-25T05:51:13;17.20;;;11.43;;
65174;SDS011;51761;42.126;24.752;2023-04-25T05:53:38;17.30;;;10.68;;
65174;SDS011;51761;42.126;24.752;2023-04-25T05:56:03;18.52;;;11.48;;
65174;SDS011;51761;42.126;24.752;2023-04-25T05:58:29;18.58;;;11.55;;
65174;SDS011;51761;42.126;24.752;2023-04-25T06:00:55;15.98;;;11.27;;
65174;SDS011;51761;42.126;24.752;2023-04-25T06:03:20;20.35;;;9.93;;
65174;SDS011;51761;42.126;24.752;2023-04-25T06:05:46;55.88;;;28.50;;
65174;SDS011;51761;42.126;24.752;2023-04-25T06:08:11;47.28;;;25.42;;
65174;SDS011;51761;42.126;24.752;2023-04-25T06:10:37;23.17;;;9.10;;
65174;SDS011;51761;42.126;24.752;2023-04-25T06:13:03;10.13;;;6.80;;
65174;SDS011;51761;42.126;24.752;2023-04-25T06:15:30;14.75;;;8.57;;
65174;SDS011;51761;42.126;24.752;2023-04-25T06:17:58;13.27;;;7.70;;
65174;SDS011;51761;42.126;24.752;2023-04-25T06:20:24;14.00;;;7.13;;
65174;SDS011;51761;42.126;24.752;2023-04-25T06:22:50;11.15;;;8.07;;
65174;SDS011;51761;42.126;24.752;2023-04-25T06:25:19;16.02;;;8.20;;
65174;SDS011;51761;42.126;24.752;2023-04-25T06:27:45;10.30;;;7.93;;
65174;SDS011;51761;42.126;24.752;2023-04-25T06:30:10;9.85;;;7.07;;
65174;SDS011;51761;42.126;24.752;2023-04-25T06:32:37;8.90;;;6.18;;
65174;SDS011;51761;42.126;24.752;2023-04-25T06:35:03;10.65;;;6.10;;
65174;SDS011;51761;42.126;24.752;2023-04-25T06:37:29;10.23;;;6.28;;
65174;SDS011;51761;42.126;24.752;2023-04-25T06:39:55;17.00;;;6.55;;
65174;SDS011;51761;42.126;24.752;2023-04-25T06:42:20;13.43;;;8.02;;
65174;SDS011;51761;42.126;24.752;2023-04-25T06:44:46;12.30;;;6.10;;
65174;SDS011;51761;42.126;24.752;2023-04-25T06:47:11;15.52;;;6.75;;
65174;SDS011;51761;42.126;24.752;2023-04-25T06:49:37;10.25;;;6.30;;
65174;SDS011;51761;42.126;24.752;2023-04-25T06:52:02;16.13;;;7.25;;
65174;SDS011;51761;42.126;24.752;2023-04-25T06:54:28;13.18;;;7.32;;
65174;SDS011;51761;42.126;24.752;2023-04-25T06:56:55;43.90;;;23.65;;
65174;SDS011;51761;42.126;24.752;2023-04-25T06:59:21;12.32;;;6.10;;
65174;SDS011;51761;42.126;24.752;2023-04-25T07:01:46;11.32;;;6.20;;
65174;SDS011;51761;42.126;24.752;2023-04-25T07:04:12;11.05;;;5.47;;
65174;SDS011;51761;42.126;24.752;2023-04-25T07:06:38;13.15;;;6.10;;
65174;SDS011;51761;42.126;24.752;2023-04-25T07:09:07;10.18;;;5.90;;
65174;SDS011;51761;42.126;24.752;2023-04-25T07:11:37;16.48;;;5.85;;
65174;SDS011;51761;42.126;24.752;2023-04-25T07:14:02;11.35;;;5.65;;
65174;SDS011;51761;42.126;24.752;2023-04-25T07:16:28;13.98;;;6.15;;
65174;SDS011;51761;42.126;24.752;2023-04-25T07:18:54;11.35;;;5.38;;
65174;SDS011;51761;42.126;24.752;2023-04-25T07:21:19;11.98;;;5.90;;
65174;SDS011;51761;42.126;24.752;2023-04-25T07:23:45;14.15;;;7.20;;
65174;SDS011;51761;42.126;24.752;2023-04-25T07:26:11;13.55;;;6.68;;
65174;SDS011;51761;42.126;24.752;2023-04-25T07:28:36;12.05;;;7.10;;
65174;SDS011;51761;42.126;24.752;2023-04-25T07:31:02;19.92;;;8.98;;
65174;SDS011;51761;42.126;24.752;2023-04-25T07:33:28;19.13;;;7.85;;
65174;SDS011;51761;42.126;24.752;2023-04-25T07:35:54;12.68;;;8.30;;
65174;SDS011;51761;42.126;24.752;2023-04-25T07:38:20;15.25;;;8.05;;
65174;SDS011;51761;42.126;24.752;2023-04-25T07:40:47;12.48;;;7.63;;
65174;SDS011;51761;42.126;24.752;2023-04-25T07:43:13;17.33;;;8.85;;
65174;SDS011;51761;42.126;24.752;2023-04-25T07:45:41;15.90;;;8.00;;
65174;SDS011;51761;42.126;24.752;2023-04-25T07:48:10;13.82;;;8.30;;
65174;SDS011;51761;42.126;24.752;2023-04-25T07:50:36;20.00;;;9.88;;
65174;SDS011;51761;42.126;24.752;2023-04-25T07:53:01;13.88;;;8.88;;
65174;SDS011;51761;42.126;24.752;2023-04-25T07:55:27;15.60;;;8.50;;
65174;SDS011;51761;42.126;24.752;2023-04-25T07:57:53;16.25;;;8.25;;
65174;SDS011;51761;42.126;24.752;2023-04-25T08:00:18;17.88;;;7.97;;
65174;SDS011;51761;42.126;24.752;2023-04-25T08:02:44;17.48;;;8.85;;
65174;SDS011;51761;42.126;24.752;2023-04-25T08:05:10;13.88;;;8.32;;
65174;SDS011;51761;42.126;24.752;2023-04-25T08:07:37;17.98;;;9.07;;
65174;SDS011;51761;42.126;24.752;2023-04-25T08:10:04;17.45;;;9.27;;
65174;SDS011;51761;42.126;24.752;2023-04-25T08:12:31;16.23;;;8.40;;
65174;SDS011;51761;42.126;24.752;2023-04-25T08:14:56;12.60;;;8.23;;
65174;SDS011;51761;42.126;24.752;2023-04-25T08:17:21;15.05;;;7.40;;
65174;SDS011;51761;42.126;24.752;2023-04-25T08:19:47;11.77;;;7.20;;
65174;SDS011;51761;42.126;24.752;2023-04-25T08:22:12;10.10;;;5.97;;
65174;SDS011;51761;42.126;24.752;2023-04-25T08:24:38;11.52;;;6.45;;
65174;SDS011;51761;42.126;24.752;2023-04-25T08:27:03;10.02;;;6.03;;
65174;SDS011;51761;42.126;24.752;2023-04-25T08:29:29;10.90;;;6.05;;
65174;SDS011;51761;42.126;24.752;2023-04-25T08:31:54;16.70;;;6.78;;
65174;SDS011;51761;42.126;24.752;2023-04-25T08:34:20;10.57;;;5.72;;
65174;SDS011;51761;42.126;24.752;2023-04-25T08:36:46;9.90;;;5.65;;
65174;SDS011;51761;42.126;24.752;2023-04-25T08:39:11;11.20;;;5.53;;
65174;SDS011;51761;42.126;24.752;2023-04-25T08:41:38;13.73;;;6.13;;
65174;SDS011;51761;42.126;24.752;2023-04-25T08:44:03;7.85;;;4.88;;
65174;SDS011;51761;42.126;24.752;2023-04-25T08:46:30;5.07;;;3.60;;
65174;SDS011;51761;42.126;24.752;2023-04-25T08:49:00;6.15;;;3.50;;
65174;SDS011;51761;42.126;24.752;2023-04-25T08:51:27;11.13;;;3.95;;
65174;SDS011;51761;42.126;24.752;2023-04-25T08:53:56;4.60;;;3.15;;
65174;SDS011;51761;42.126;24.752;2023-04-25T08:56:41;5.88;;;3.25;;
65174;SDS011;51761;42.126;24.752;2023-04-25T08:59:09;13.90;;;4.00;;
65174;SDS011;51761;42.126;24.752;2023-04-25T09:01:36;5.25;;;3.58;;
65174;SDS011;51761;42.126;24.752;2023-04-25T09:04:02;6.90;;;3.60;;
65174;SDS011;51761;42.126;24.752;2023-04-25T09:06:30;6.15;;;3.33;;
65174;SDS011;51761;42.126;24.752;2023-04-25T09:09:06;6.20;;;4.28;;
65174;SDS011;51761;42.126;24.752;2023-04-25T09:11:33;8.90;;;4.57;;
65174;SDS011;51761;42.126;24.752;2023-04-25T09:14:13;6.07;;;3.35;;
65174;SDS011;51761;42.126;24.752;2023-04-25T09:17:22;4.45;;;2.85;;
65174;SDS011;51761;42.126;24.752;2023-04-25T09:19:33;4.47;;;3.10;;
65174;SDS011;51761;42.126;24.752;2023-04-25T09:22:04;4.82;;;3.13;;
65174;SDS011;51761;42.126;24.752;2023-04-25T09:26:58;7.32;;;3.60;;
65174;SDS011;51761;42.126;24.752;2023-04-25T09:29:33;5.47;;;3.83;;
65174;SDS011;51761;42.126;24.752;2023-04-25T09:32:19;4.90;;;3.47;;
65174;SDS011;51761;42.126;24.752;2023-04-25T09:34:47;6.25;;;3.28;;
65174;SDS011;51761;42.126;24.752;2023-04-25T09:37:19;4.80;;;3.13;;
65174;SDS011;51761;42.126;24.752;2023-04-25T09:39:53;4.93;;;3.00;;
65174;SDS011;51761;42.126;24.752;2023-04-25T09:42:24;5.43;;;3.00;;
65174;SDS011;51761;42.126;24.752;2023-04-25T09:44:54;4.53;;;3.08;;
65174;SDS011;51761;42.126;24.752;2023-04-25T09:47:22;10.85;;;3.50;;
65174;SDS011;51761;42.126;24.752;2023-04-25T09:49:49;3.70;;;3.00;;
65174;SDS011;51761;42.126;24.752;2023-04-25T09:52:16;4.28;;;2.70;;
65174;SDS011;51761;42.126;24.752;2023-04-25T09:54:47;5.15;;;3.65;;
65174;SDS011;51761;42.126;24.752;2023-04-25T09:57:17;7.30;;;3.55;;
65174;SDS011;51761;42.126;24.752;2023-04-25T09:59:48;6.40;;;3.75;;
65174;SDS011;51761;42.126;24.752;2023-04-25T10:02:16;5.22;;;3.60;;
65174;SDS011;51761;42.126;24.752;2023-04-25T10:04:50;4.43;;;3.58;;
65174;SDS011;51761;42.126;24.752;2023-04-25T10:07:18;4.53;;;3.05;;
65174;SDS011;51761;42.126;24.752;2023-04-25T10:09:47;5.35;;;3.50;;
65174;SDS011;51761;42.126;24.752;2023-04-25T10:12:15;3.90;;;3.22;;
65174;SDS011;51761;42.126;24.752;2023-04-25T10:14:41;3.85;;;2.95;;
65174;SDS011;51761;42.126;24.752;2023-04-25T10:17:08;6.10;;;3.13;;
65174;SDS011;51761;42.126;24.752;2023-04-25T10:19:36;3.55;;;2.67;;
65174;SDS011;51761;42.126;24.752;2023-04-25T10:22:11;4.57;;;2.10;;
65174;SDS011;51761;42.126;24.752;2023-04-25T10:24:44;3.63;;;2.45;;
65174;SDS011;51761;42.126;24.752;2023-04-25T10:27:11;4.63;;;2.30;;
65174;SDS011;51761;42.126;24.752;2023-04-25T10:29:37;3.08;;;2.35;;
65174;SDS011;51761;42.126;24.752;2023-04-25T10:32:03;3.08;;;2.55;;
65174;SDS011;51761;42.126;24.752;2023-04-25T10:34:42;4.07;;;2.45;;
65174;SDS011;51761;42.126;24.752;2023-04-25T10:37:12;5.07;;;3.10;;
65174;SDS011;51761;42.126;24.752;2023-04-25T10:39:41;8.95;;;2.85;;
65174;SDS011;51761;42.126;24.752;2023-04-25T10:42:07;3.63;;;2.38;;
65174;SDS011;51761;42.126;24.752;2023-04-25T10:44:33;3.65;;;2.20;;
65174;SDS011;51761;42.126;24.752;2023-04-25T10:47:00;6.05;;;2.70;;
65174;SDS011;51761;42.126;24.752;2023-04-25T10:49:31;3.97;;;2.70;;
65174;SDS011;51761;42.126;24.752;2023-04-25T10:54:54;7.70;;;2.30;;
65174;SDS011;51761;42.126;24.752;2023-04-25T10:57:54;3.28;;;2.10;;
65174;SDS011;51761;42.126;24.752;2023-04-25T11:00:15;3.47;;;2.35;;
65174;SDS011;51761;42.126;24.752;2023-04-25T11:05:10;5.15;;;2.10;;
65174;SDS011;51761;42.126;24.752;2023-04-25T11:07:49;3.10;;;2.10;;
65174;SDS011;51761;42.126;24.752;2023-04-25T11:10:16;4.35;;;2.53;;
65174;SDS011;51761;42.126;24.752;2023-04-25T11:12:43;6.47;;;2.90;;
65174;SDS011;51761;42.126;24.752;2023-04-25T11:15:10;6.95;;;2.20;;
65174;SDS011;51761;42.126;24.752;2023-04-25T11:17:35;6.43;;;3.05;;
65174;SDS011;51761;42.126;24.752;2023-04-25T11:20:01;4.85;;;3.13;;
65174;SDS011;51761;42.126;24.752;2023-04-25T11:22:31;4.88;;;2.95;;
65174;SDS011;51761;42.126;24.752;2023-04-25T11:24:56;3.03;;;2.67;;
65174;SDS011;51761;42.126;24.752;2023-04-25T11:27:22;7.15;;;2.70;;
65174;SDS011;51761;42.126;24.752;2023-04-25T11:29:49;6.80;;;3.35;;
65174;SDS011;51761;42.126;24.752;2023-04-25T11:32:15;5.22;;;2.95;;
65174;SDS011;51761;42.126;24.752;2023-04-25T11:34:43;5.13;;;3.10;;
65174;SDS011;51761;42.126;24.752;2023-04-25T11:37:10;9.13;;;3.50;;
65174;SDS011;51761;42.126;24.752;2023-04-25T11:39:37;6.68;;;2.92;;
65174;SDS011;51761;42.126;24.752;2023-04-25T11:42:03;7.65;;;3.35;;
65174;SDS011;51761;42.126;24.752;2023-04-25T11:44:30;5.13;;;3.20;;
65174;SDS011;51761;42.126;24.752;2023-04-25T11:46:56;8.05;;;2.92;;
65174;SDS011;51761;42.126;24.752;2023-04-25T11:49:21;6.88;;;3.15;;
65174;SDS011;51761;42.126;24.752;2023-04-25T11:51:47;3.67;;;2.92;;
65174;SDS011;51761;42.126;24.752;2023-04-25T11:54:13;5.47;;;3.10;;
65174;SDS011;51761;42.126;24.752;2023-04-25T11:56:43;6.22;;;3.63;;
65174;SDS011;51761;42.126;24.752;2023-04-25T11:59:10;7.57;;;3.58;;
65174;SDS011;51761;42.126;24.752;2023-04-25T12:01:37;4.65;;;3.00;;
65174;SDS011;51761;42.126;24.752;2023-04-25T12:06:39;7.30;;;3.33;;
65174;SDS011;51761;42.126;24.752;2023-04-25T12:09:10;6.88;;;3.25;;
65174;SDS011;51761;42.126;24.752;2023-04-25T12:14:34;5.50;;;3.20;;
65174;SDS011;51761;42.126;24.752;2023-04-25T12:17:00;4.60;;;2.80;;
65174;SDS011;51761;42.126;24.752;2023-04-25T12:19:34;3.15;;;2.70;;
65174;SDS011;51761;42.126;24.752;2023-04-25T12:22:01;7.18;;;3.00;;
65174;SDS011;51761;42.126;24.752;2023-04-25T12:24:32;4.75;;;2.85;;
65174;SDS011;51761;42.126;24.752;2023-04-25T12:27:00;7.97;;;3.00;;
65174;SDS011;51761;42.126;24.752;2023-04-25T12:29:30;6.35;;;3.50;;
65174;SDS011;51761;42.126;24.752;2023-04-25T12:31:57;6.05;;;3.00;;
65174;SDS011;51761;42.126;24.752;2023-04-25T12:34:24;5.72;;;3.47;;
65174;SDS011;51761;42.126;24.752;2023-04-25T12:36:50;11.25;;;3.78;;
65174;SDS011;51761;42.126;24.752;2023-04-25T12:39:20;4.53;;;3.17;;
65174;SDS011;51761;42.126;24.752;2023-04-25T12:41:48;4.40;;;3.03;;
65174;SDS011;51761;42.126;24.752;2023-04-25T12:44:14;6.75;;;2.60;;
65174;SDS011;51761;42.126;24.752;2023-04-25T12:46:40;6.47;;;3.15;;
65174;SDS011;51761;42.126;24.752;2023-04-25T12:49:06;9.60;;;2.95;;
65174;SDS011;51761;42.126;24.752;2023-04-25T12:51:33;5.80;;;2.70;;
65174;SDS011;51761;42.126;24.752;2023-04-25T12:53:59;3.38;;;2.60;;
65174;SDS011;51761;42.126;24.752;2023-04-25T12:56:25;6.88;;;2.40;;
65174;SDS011;51761;42.126;24.752;2023-04-25T12:58:52;9.98;;;4.40;;
65174;SDS011;51761;42.126;24.752;2023-04-25T13:01:18;9.90;;;4.05;;
65174;SDS011;51761;42.126;24.752;2023-04-25T13:03:45;12.50;;;4.18;;
65174;SDS011;51761;42.126;24.752;2023-04-25T13:06:10;4.95;;;3.35;;
65174;SDS011;51761;42.126;24.752;2023-04-25T13:08:36;5.07;;;3.08;;
65174;SDS011;51761;42.126;24.752;2023-04-25T13:11:03;7.35;;;3.30;;
65174;SDS011;51761;42.126;24.752;2023-04-25T13:13:29;8.32;;;3.38;;
65174;SDS011;51761;42.126;24.752;2023-04-25T13:15:56;6.20;;;3.42;;
65174;SDS011;51761;42.126;24.752;2023-04-25T13:18:22;7.65;;;3.75;;
65174;SDS011;51761;42.126;24.752;2023-04-25T13:20:51;8.18;;;2.70;;
65174;SDS011;51761;42.126;24.752;2023-04-25T13:23:18;5.22;;;2.55;;
65174;SDS011;51761;42.126;24.752;2023-04-25T13:25:44;10.80;;;2.78;;
65174;SDS011;51761;42.126;24.752;2023-04-25T13:28:09;4.43;;;2.50;;
65174;SDS011;51761;42.126;24.752;2023-04-25T13:30:35;3.80;;;2.55;;
65174;SDS011;51761;42.126;24.752;2023-04-25T13:33:00;13.25;;;3.83;;
65174;SDS011;51761;42.126;24.752;2023-04-25T13:35:28;3.53;;;2.35;;
65174;SDS011;51761;42.126;24.752;2023-04-25T13:37:54;4.90;;;2.08;;
65174;SDS011;51761;42.126;24.752;2023-04-25T13:40:20;2.60;;;2.15;;
65174;SDS011;51761;42.126;24.752;2023-04-25T13:42:46;7.05;;;2.45;;
65174;SDS011;51761;42.126;24.752;2023-04-25T13:45:11;3.17;;;1.80;;
65174;SDS011;51761;42.126;24.752;2023-04-25T13:47:37;9.88;;;2.60;;
65174;SDS011;51761;42.126;24.752;2023-04-25T13:50:05;6.35;;;2.08;;
65174;SDS011;51761;42.126;24.752;2023-04-25T13:52:32;3.22;;;2.13;;
65174;SDS011;51761;42.126;24.752;2023-04-25T13:54:58;5.90;;;2.47;;
65174;SDS011;51761;42.126;24.752;2023-04-25T13:57:23;6.40;;;2.60;;
65174;SDS011;51761;42.126;24.752;2023-04-25T13:59:49;3.28;;;2.30;;
65174;SDS011;51761;42.126;24.752;2023-04-25T14:02:15;4.60;;;2.33;;
65174;SDS011;51761;42.126;24.752;2023-04-25T14:04:41;4.82;;;1.80;;
65174;SDS011;51761;42.126;24.752;2023-04-25T14:07:06;3.60;;;2.22;;
65174;SDS011;51761;42.126;24.752;2023-04-25T14:09:32;8.18;;;4.97;;
65174;SDS011;51761;42.126;24.752;2023-04-25T14:11:57;8.05;;;1.95;;
65174;SDS011;51761;42.126;24.752;2023-04-25T14:14:23;4.60;;;1.70;;
65174;SDS011;51761;42.126;24.752;2023-04-25T14:16:49;3.15;;;1.40;;
65174;SDS011;51761;42.126;24.752;2023-04-25T14:19:15;2.60;;;1.70;;
65174;SDS011;51761;42.126;24.752;2023-04-25T14:21:41;3.53;;;1.58;;
65174;SDS011;51761;42.126;24.752;2023-04-25T14:24:08;2.35;;;1.52;;
65174;SDS011;51761;42.126;24.752;2023-04-25T14:26:34;1.77;;;1.60;;
65174;SDS011;51761;42.126;24.752;2023-04-25T14:29:01;1.83;;;1.38;;
65174;SDS011;51761;42.126;24.752;2023-04-25T14:31:26;9.38;;;2.15;;
65174;SDS011;51761;42.126;24.752;2023-04-25T14:33:52;6.28;;;1.70;;
65174;SDS011;51761;42.126;24.752;2023-04-25T14:36:18;2.65;;;1.95;;